Time;durP1;ratioP1;P1;durP2;ratioP2;P2;SDS_P1;SDS_P2;PMS_P1;PMS_P2;Temp;Humidity;BMP_temperature;BMP_pressure;BME280_temperature;BME280_humidity;BME280_pressure;Samples;Min_cycle;Max_cycle;Signal;HPM_P1;HPM_P2
2022/10/12 00:00:38;;;;;;;18.02;9.30;;;;;;;;;;6245289;23;20070;-66
2022/10/12 00:03:06;;;;;;;16.83;9.48;;;;;;;;;;6246591;23;20012;-66
2022/10/12 00:05:33;;;;;;;20.67;9.27;;;;;;;;;;6247217;23;20016;-66
2022/10/12 00:08:01;;;;;;;17.25;8.27;;;;;;;;;;6247099;23;20020;-66
2022/10/12 00:10:28;;;;;;;17.23;8.35;;;;;;;;;;6247193;23;20020;-66
2022/10/12 00:12:56;;;;;;;19.95;9.00;;;;;;;;;;6247178;23;20012;-66
2022/10/12 00:15:23;;;;;;;15.85;7.82;;;;;;;;;;6247152;23;20099;-66
2022/10/12 00:17:52;;;;;;;15.68;9.13;;;;;;;;;;6247180;23;20016;-66
2022/10/12 00:20:19;;;;;;;18.92;8.65;;;;;;;;;;6247219;23;20020;-66
2022/10/12 00:22:47;;;;;;;13.43;8.65;;;;;;;;;;6247176;23;20016;-66
2022/10/12 00:25:15;;;;;;;17.85;8.93;;;;;;;;;;6247111;23;20070;-66
2022/10/12 00:27:42;;;;;;;21.98;9.68;;;;;;;;;;6246962;23;20043;-66
2022/10/12 00:30:10;;;;;;;20.58;10.13;;;;;;;;;;6247199;23;20066;-66
2022/10/12 00:32:38;;;;;;;19.00;9.73;;;;;;;;;;6247290;23;20016;-66
2022/10/12 00:35:06;;;;;;;20.65;9.73;;;;;;;;;;6247020;23;20016;-66
2022/10/12 00:37:33;;;;;;;17.98;9.98;;;;;;;;;;6247088;23;20087;-66
2022/10/12 00:40:01;;;;;;;20.67;9.18;;;;;;;;;;6246987;23;20087;-66
2022/10/12 00:42:28;;;;;;;16.45;10.32;;;;;;;;;;6246911;23;20058;-66
2022/10/12 00:44:56;;;;;;;21.00;10.98;;;;;;;;;;6220003;23;20442;-66
2022/10/12 00:47:26;;;;;;;20.13;11.32;;;;;;;;;;6246829;23;20016;-66
2022/10/12 00:50:06;;;;;;;22.13;11.63;;;;;;;;;;6220074;23;20091;-66
2022/10/12 00:52:40;;;;;;;21.08;11.02;;;;;;;;;;6220255;23;20040;-66
2022/10/12 00:55:09;;;;;;;19.55;10.40;;;;;;;;;;6247143;23;20393;-66
2022/10/12 00:57:37;;;;;;;18.08;9.70;;;;;;;;;;6220387;23;20031;-66
2022/10/12 01:00:11;;;;;;;22.95;9.55;;;;;;;;;;6246956;23;20016;-66
2022/10/12 01:02:39;;;;;;;16.52;9.23;;;;;;;;;;6247003;23;20012;-66
2022/10/12 01:05:08;;;;;;;17.92;9.70;;;;;;;;;;6246687;23;20028;-66
2022/10/12 01:07:35;;;;;;;22.00;11.65;;;;;;;;;;6246802;23;20012;-66
2022/10/12 01:10:03;;;;;;;25.05;11.57;;;;;;;;;;6220406;23;20099;-67
2022/10/12 01:12:31;;;;;;;18.17;10.43;;;;;;;;;;6246738;23;20019;-67
2022/10/12 01:14:59;;;;;;;17.35;9.30;;;;;;;;;;6246114;23;20391;-67
2022/10/12 01:17:45;;;;;;;18.85;9.50;;;;;;;;;;6246915;23;20090;-67
2022/10/12 01:20:28;;;;;;;17.75;9.80;;;;;;;;;;6246975;23;20016;-67
2022/10/12 01:22:58;;;;;;;18.33;9.88;;;;;;;;;;6246573;23;20023;-67
2022/10/12 01:25:33;;;;;;;22.15;12.25;;;;;;;;;;6246500;23;20019;-67
2022/10/12 01:28:17;;;;;;;22.13;12.38;;;;;;;;;;6246549;23;20023;-67
2022/10/12 01:30:48;;;;;;;26.40;13.02;;;;;;;;;;6246271;23;20389;-67
2022/10/12 01:33:18;;;;;;;22.88;12.93;;;;;;;;;;6246526;23;20026;-67
2022/10/12 01:35:55;;;;;;;19.92;11.23;;;;;;;;;;6246437;23;20338;-67
2022/10/12 01:38:41;;;;;;;21.70;11.30;;;;;;;;;;6219762;23;20020;-67
2022/10/12 01:41:13;;;;;;;20.70;11.95;;;;;;;;;;6246679;23;20039;-65
2022/10/12 01:43:42;;;;;;;24.98;15.07;;;;;;;;;;6246322;23;20023;-65
2022/10/12 01:46:12;;;;;;;22.55;13.00;;;;;;;;;;6219527;23;20016;-67
2022/10/12 01:48:40;;;;;;;22.88;12.65;;;;;;;;;;6246265;23;20020;-67
2022/10/12 01:51:10;;;;;;;20.83;11.88;;;;;;;;;;6246326;23;20016;-67
2022/10/12 01:53:50;;;;;;;20.52;12.02;;;;;;;;;;6246243;23;20088;-67
2022/10/12 01:56:17;;;;;;;17.80;10.80;;;;;;;;;;6219398;23;20083;-67
2022/10/12 01:58:44;;;;;;;18.40;10.57;;;;;;;;;;6246322;23;20050;-65
2022/10/12 02:01:27;;;;;;;17.48;10.23;;;;;;;;;;6246332;23;20020;-65
2022/10/12 02:04:16;;;;;;;18.63;10.73;;;;;;;;;;6246579;23;20029;-65
2022/10/12 02:06:46;;;;;;;17.60;9.88;;;;;;;;;;6246273;23;20016;-65
2022/10/12 02:09:20;;;;;;;21.55;9.18;;;;;;;;;;6245855;23;20099;-65
2022/10/12 02:11:50;;;;;;;16.40;9.30;;;;;;;;;;6245988;23;20020;-65
2022/10/12 02:14:22;;;;;;;18.25;9.25;;;;;;;;;;6219157;23;20342;-65
2022/10/12 02:16:51;;;;;;;22.23;9.73;;;;;;;;;;6246385;23;20016;-65
2022/10/12 02:19:24;;;;;;;16.70;8.90;;;;;;;;;;6245986;23;20039;-66
2022/10/12 02:21:54;;;;;;;20.50;8.95;;;;;;;;;;6246271;23;20016;-66
2022/10/12 02:24:22;;;;;;;16.33;9.23;;;;;;;;;;6246312;23;20530;-66
2022/10/12 02:26:52;;;;;;;14.95;9.00;;;;;;;;;;6245712;23;20369;-67
2022/10/12 02:29:22;;;;;;;16.90;9.30;;;;;;;;;;6245897;23;20016;-66
2022/10/12 02:31:59;;;;;;;17.63;9.20;;;;;;;;;;6246063;23;20020;-66
2022/10/12 02:34:42;;;;;;;17.73;9.23;;;;;;;;;;6246255;23;20016;-66
2022/10/12 02:37:14;;;;;;;13.65;9.15;;;;;;;;;;6245896;23;20016;-67
2022/10/12 02:39:48;;;;;;;18.15;9.18;;;;;;;;;;6245880;23;20027;-66
2022/10/12 02:42:18;;;;;;;12.10;8.57;;;;;;;;;;6194439;23;20027;-66
2022/10/12 02:44:46;;;;;;;18.67;9.27;;;;;;;;;;6219194;23;20028;-66
2022/10/12 02:47:14;;;;;;;17.05;9.27;;;;;;;;;;6245870;23;20342;-66
2022/10/12 02:49:43;;;;;;;15.25;8.90;;;;;;;;;;6245634;23;20019;-66
2022/10/12 02:52:11;;;;;;;18.70;9.48;;;;;;;;;;6245616;23;20012;-66
2022/10/12 02:54:39;;;;;;;18.08;9.82;;;;;;;;;;6246010;23;20031;-66
2022/10/12 02:57:07;;;;;;;16.88;9.55;;;;;;;;;;6244806;23;20012;-66
2022/10/12 02:59:34;;;;;;;15.30;9.10;;;;;;;;;;6245560;23;20016;-67
2022/10/12 03:02:02;;;;;;;17.65;9.07;;;;;;;;;;6245640;23;20382;-66
2022/10/12 03:04:29;;;;;;;16.63;9.02;;;;;;;;;;6245587;23;20026;-66
2022/10/12 03:06:57;;;;;;;16.20;8.80;;;;;;;;;;6245660;23;20019;-66
2022/10/12 03:09:24;;;;;;;20.70;9.27;;;;;;;;;;6193937;23;20020;-66
2022/10/12 03:11:52;;;;;;;16.77;9.55;;;;;;;;;;6245575;23;20008;-66
2022/10/12 03:14:20;;;;;;;17.40;9.10;;;;;;;;;;6218922;23;20016;-67
2022/10/12 03:16:47;;;;;;;15.63;9.20;;;;;;;;;;6245325;23;20019;-66
2022/10/12 03:19:15;;;;;;;20.77;10.48;;;;;;;;;;6245462;23;20517;-66
2022/10/12 03:21:42;;;;;;;18.63;9.38;;;;;;;;;;6245526;23;20044;-66
2022/10/12 03:24:09;;;;;;;20.92;9.73;;;;;;;;;;6245532;23;20039;-66
2022/10/12 03:26:37;;;;;;;19.33;9.25;;;;;;;;;;6245573;23;20027;-66
2022/10/12 03:29:04;;;;;;;21.40;10.02;;;;;;;;;;6218892;23;20382;-66
2022/10/12 03:31:32;;;;;;;14.68;8.88;;;;;;;;;;6245348;23;20024;-66
2022/10/12 03:33:59;;;;;;;15.32;9.00;;;;;;;;;;6245597;23;20016;-66
2022/10/12 03:36:27;;;;;;;17.08;8.93;;;;;;;;;;6218542;23;20024;-66
2022/10/12 03:38:54;;;;;;;15.73;9.35;;;;;;;;;;6245283;23;20024;-66
2022/10/12 03:41:22;;;;;;;16.48;9.23;;;;;;;;;;6245268;23;20458;-66
2022/10/12 03:43:49;;;;;;;17.17;10.27;;;;;;;;;;6245253;23;20012;-66
2022/10/12 03:46:17;;;;;;;16.90;9.57;;;;;;;;;;6245257;23;20338;-66
2022/10/12 03:48:44;;;;;;;16.17;9.68;;;;;;;;;;6245205;23;20023;-66
2022/10/12 03:51:12;;;;;;;17.08;10.30;;;;;;;;;;6245394;23;20023;-67
2022/10/12 03:53:39;;;;;;;16.27;9.90;;;;;;;;;;6245219;23;20087;-67
2022/10/12 03:56:12;;;;;;;21.15;10.95;;;;;;;;;;6218667;23;20350;-67
2022/10/12 03:58:39;;;;;;;18.85;11.07;;;;;;;;;;6245237;23;20122;-67
2022/10/12 04:01:07;;;;;;;18.98;10.98;;;;;;;;;;6218649;23;20078;-66
2022/10/12 04:03:35;;;;;;;17.98;10.52;;;;;;;;;;6245398;23;20023;-67
2022/10/12 04:06:02;;;;;;;16.55;10.05;;;;;;;;;;6218419;23;20043;-67
2022/10/12 04:08:30;;;;;;;15.95;10.20;;;;;;;;;;6245156;23;20200;-67
2022/10/12 04:10:57;;;;;;;18.38;10.77;;;;;;;;;;6245148;23;20024;-67
2022/10/12 04:13:25;;;;;;;15.50;9.93;;;;;;;;;;6245079;23;20446;-67
2022/10/12 04:15:52;;;;;;;18.40;9.75;;;;;;;;;;6244939;23;20400;-67
2022/10/12 04:18:20;;;;;;;16.42;10.27;;;;;;;;;;6245487;23;20381;-67
2022/10/12 04:20:48;;;;;;;16.02;10.30;;;;;;;;;;6245409;23;20312;-67
2022/10/12 04:23:15;;;;;;;16.15;9.80;;;;;;;;;;6245009;23;20304;-66
2022/10/12 04:25:43;;;;;;;14.75;10.25;;;;;;;;;;6245024;23;20103;-66
2022/10/12 04:28:11;;;;;;;16.65;10.27;;;;;;;;;;6218663;23;20116;-68
2022/10/12 04:30:38;;;;;;;21.05;11.18;;;;;;;;;;6218330;23;20016;-68
2022/10/12 04:33:06;;;;;;;22.40;10.90;;;;;;;;;;6217907;23;20458;-67
2022/10/12 04:35:33;;;;;;;17.67;10.45;;;;;;;;;;6244696;23;20017;-68
2022/10/12 04:38:01;;;;;;;18.25;10.93;;;;;;;;;;6217865;23;20335;-68
2022/10/12 04:40:28;;;;;;;23.02;11.13;;;;;;;;;;6244857;23;20016;-68
2022/10/12 04:42:56;;;;;;;20.23;10.60;;;;;;;;;;6244560;23;20515;-68
2022/10/12 04:45:23;;;;;;;19.02;12.07;;;;;;;;;;6218075;23;20070;-68
2022/10/12 04:47:51;;;;;;;16.27;11.00;;;;;;;;;;6244863;22;20016;-67
2022/10/12 04:50:18;;;;;;;16.95;9.93;;;;;;;;;;6246479;23;20044;-67
2022/10/12 04:52:46;;;;;;;21.63;11.25;;;;;;;;;;6219744;23;20090;-67
2022/10/12 04:55:13;;;;;;;22.90;11.43;;;;;;;;;;6246753;23;20350;-68
2022/10/12 04:57:41;;;;;;;19.40;10.45;;;;;;;;;;6247332;23;20397;-68
2022/10/12 05:00:08;;;;;;;24.17;11.15;;;;;;;;;;6220024;23;20016;-68
2022/10/12 05:02:39;;;;;;;19.70;11.88;;;;;;;;;;6246224;23;20019;-68
2022/10/12 05:05:07;;;;;;;19.70;11.15;;;;;;;;;;6219467;23;20016;-68
2022/10/12 05:07:34;;;;;;;22.50;11.63;;;;;;;;;;6246404;23;20012;-68
2022/10/12 05:10:03;;;;;;;21.67;11.93;;;;;;;;;;6219708;23;20103;-67
2022/10/12 05:12:30;;;;;;;16.83;10.45;;;;;;;;;;6220214;23;20334;-68
2022/10/12 05:14:58;;;;;;;19.98;12.00;;;;;;;;;;6220249;23;20023;-68
2022/10/12 05:17:25;;;;;;;19.10;11.55;;;;;;;;;;6246610;23;20043;-67
2022/10/12 05:19:53;;;;;;;19.48;11.23;;;;;;;;;;6246545;23;20477;-68
2022/10/12 05:22:20;;;;;;;27.17;11.88;;;;;;;;;;6246523;23;20042;-68
2022/10/12 05:24:48;;;;;;;22.02;11.38;;;;;;;;;;6246516;23;20016;-68
2022/10/12 05:27:20;;;;;;;22.45;11.23;;;;;;;;;;6246253;23;20019;-67
2022/10/12 05:29:48;;;;;;;22.17;12.70;;;;;;;;;;6246704;23;20027;-67
2022/10/12 05:32:16;;;;;;;20.42;12.32;;;;;;;;;;6246000;23;20018;-67
2022/10/12 05:34:43;;;;;;;20.42;11.80;;;;;;;;;;6246157;23;20016;-67
2022/10/12 05:37:10;;;;;;;23.30;12.13;;;;;;;;;;6219139;23;20066;-67
2022/10/12 05:39:38;;;;;;;25.13;12.50;;;;;;;;;;6246311;23;20522;-67
2022/10/12 05:42:05;;;;;;;17.17;11.45;;;;;;;;;;6246283;23;20016;-67
2022/10/12 05:44:33;;;;;;;21.88;12.27;;;;;;;;;;6246178;23;20043;-67
2022/10/12 05:47:00;;;;;;;20.85;12.13;;;;;;;;;;6246098;23;20016;-67
2022/10/12 05:49:29;;;;;;;20.67;11.65;;;;;;;;;;6246243;23;20087;-67
2022/10/12 05:51:57;;;;;;;22.90;11.57;;;;;;;;;;6246487;23;20020;-67
2022/10/12 05:54:24;;;;;;;20.08;12.55;;;;;;;;;;6246448;23;20012;-67
2022/10/12 05:56:52;;;;;;;21.15;13.02;;;;;;;;;;6246188;23;20024;-67
2022/10/12 05:59:19;;;;;;;20.30;12.35;;;;;;;;;;6245925;23;20012;-67
2022/10/12 06:01:48;;;;;;;24.58;12.05;;;;;;;;;;6245870;23;20094;-67
2022/10/12 06:17:13;;;;;;;25.17;15.50;;;;;;;;;;5098216;22;20482;-66
2022/10/12 06:19:41;;;;;;;19.85;12.70;;;;;;;;;;5090511;28;20423;-67
2022/10/12 06:22:08;;;;;;;22.95;14.23;;;;;;;;;;5090257;28;20040;-67
2022/10/12 06:24:37;;;;;;;24.15;12.00;;;;;;;;;;5090463;28;20146;-67
2022/10/12 06:27:04;;;;;;;19.52;12.10;;;;;;;;;;5090350;28;20052;-67
2022/10/12 06:29:32;;;;;;;19.92;11.73;;;;;;;;;;5090100;28;20508;-67
2022/10/12 06:32:00;;;;;;;20.23;11.45;;;;;;;;;;5071871;28;20040;-66
2022/10/12 06:34:27;;;;;;;19.88;13.45;;;;;;;;;;5090059;28;20094;-67
2022/10/12 06:36:54;;;;;;;31.60;23.92;;;;;;;;;;5090019;28;20485;-66
2022/10/12 06:39:28;;;;;;;21.05;12.38;;;;;;;;;;5089961;28;20078;-67
2022/10/12 06:41:55;;;;;;;22.60;11.60;;;;;;;;;;5089913;28;20037;-66
2022/10/12 06:44:23;;;;;;;17.52;11.50;;;;;;;;;;5071643;28;20040;-66
2022/10/12 06:46:51;;;;;;;22.90;12.90;;;;;;;;;;5089707;28;20123;-67
2022/10/12 06:49:18;;;;;;;18.42;12.88;;;;;;;;;;5089655;28;20397;-67
2022/10/12 06:51:46;;;;;;;22.42;13.70;;;;;;;;;;5089662;28;20119;-66
2022/10/12 06:54:13;;;;;;;21.10;13.40;;;;;;;;;;5089631;28;20036;-66
2022/10/12 06:56:40;;;;;;;23.92;14.10;;;;;;;;;;5089575;28;20040;-67
2022/10/12 06:59:10;;;;;;;24.83;14.95;;;;;;;;;;5089469;28;20040;-67
2022/10/12 07:01:38;;;;;;;25.02;13.57;;;;;;;;;;5089464;28;20581;-67
2022/10/12 07:04:05;;;;;;;27.00;14.82;;;;;;;;;;5089441;28;20086;-67
2022/10/12 07:06:32;;;;;;;23.20;15.35;;;;;;;;;;5089298;28;20087;-67
2022/10/12 07:09:00;;;;;;;40.45;30.80;;;;;;;;;;5054828;28;20047;-67
2022/10/12 07:11:28;;;;;;;28.67;18.65;;;;;;;;;;5089209;28;20511;-67
2022/10/12 07:13:57;;;;;;;27.60;15.82;;;;;;;;;;5089183;28;20347;-67
2022/10/12 07:16:24;;;;;;;36.58;21.95;;;;;;;;;;5085410;28;20110;-67
2022/10/12 07:18:52;;;;;;;26.13;17.02;;;;;;;;;;5075542;28;20535;-67
2022/10/12 07:21:19;;;;;;;33.67;18.27;;;;;;;;;;5075364;28;20041;-67
2022/10/12 07:23:46;;;;;;;33.70;19.98;;;;;;;;;;5075474;28;20114;-67
2022/10/12 07:26:14;;;;;;;23.95;15.35;;;;;;;;;;5075457;28;20075;-67
2022/10/12 07:28:41;;;;;;;26.05;15.93;;;;;;;;;;5075510;28;20486;-67
2022/10/12 07:31:09;;;;;;;24.77;15.25;;;;;;;;;;5057894;28;20448;-67
2022/10/12 07:33:37;;;;;;;27.48;16.17;;;;;;;;;;5075357;28;20090;-67
2022/10/12 07:36:05;;;;;;;26.90;15.13;;;;;;;;;;5075420;28;20044;-67
2022/10/12 07:38:47;;;;;;;24.10;15.18;;;;;;;;;;5075323;28;20032;-67
2022/10/12 07:41:15;;;;;;;25.40;13.55;;;;;;;;;;5075780;28;20433;-67
2022/10/12 07:43:43;;;;;;;22.13;14.10;;;;;;;;;;5075335;28;20068;-67
2022/10/12 07:46:10;;;;;;;22.60;14.15;;;;;;;;;;5075159;28;20041;-67
2022/10/12 07:48:40;;;;;;;29.05;14.50;;;;;;;;;;5075079;28;20075;-67
2022/10/12 07:51:13;;;;;;;25.55;13.73;;;;;;;;;;5075130;28;20469;-67
2022/10/12 07:53:41;;;;;;;23.23;12.60;;;;;;;;;;5075095;28;20060;-67
2022/10/12 07:56:13;;;;;;;22.50;13.57;;;;;;;;;;5074899;28;20044;-67
2022/10/12 07:59:07;;;;;;;27.55;14.57;;;;;;;;;;5074891;28;20040;-67
2022/10/12 08:01:35;;;;;;;23.58;14.20;;;;;;;;;;5071849;28;20124;-67
2022/10/12 08:04:02;;;;;;;25.83;14.10;;;;;;;;;;5074882;28;20067;-67
2022/10/12 08:06:31;;;;;;;28.90;14.27;;;;;;;;;;5057002;28;20045;-67
2022/10/12 08:08:59;;;;;;;24.08;13.55;;;;;;;;;;5074762;28;20128;-67
2022/10/12 08:11:27;;;;;;;24.63;14.05;;;;;;;;;;5074770;28;20532;-67
2022/10/12 08:13:55;;;;;;;27.35;15.10;;;;;;;;;;5074713;28;20471;-67
2022/10/12 08:16:22;;;;;;;23.02;13.63;;;;;;;;;;5074305;28;20052;-67
2022/10/12 08:18:50;;;;;;;28.45;14.32;;;;;;;;;;5074936;28;20436;-67
2022/10/12 08:21:18;;;;;;;26.58;14.38;;;;;;;;;;5074608;28;20101;-67
2022/10/12 08:23:46;;;;;;;22.92;14.38;;;;;;;;;;5074503;28;20094;-67
2022/10/12 08:26:14;;;;;;;33.03;14.90;;;;;;;;;;5074491;28;20396;-67
2022/10/12 08:28:41;;;;;;;20.25;14.23;;;;;;;;;;5073320;28;20154;-67
2022/10/12 08:31:13;;;;;;;20.90;13.27;;;;;;;;;;5074313;28;20098;-67
2022/10/12 08:33:41;;;;;;;26.15;14.13;;;;;;;;;;5074217;28;20036;-67
2022/10/12 08:36:09;;;;;;;24.42;14.15;;;;;;;;;;5074267;28;20505;-66
2022/10/12 08:38:42;;;;;;;23.25;12.90;;;;;;;;;;5056265;28;20067;-67
2022/10/12 08:41:28;;;;;;;23.10;13.10;;;;;;;;;;5074106;28;20059;-67
2022/10/12 08:43:58;;;;;;;22.27;13.10;;;;;;;;;;5073990;28;20044;-67
2022/10/12 08:46:26;;;;;;;18.48;12.85;;;;;;;;;;5074028;28;20511;-67
2022/10/12 08:48:54;;;;;;;29.67;15.50;;;;;;;;;;5056329;28;20080;-67
2022/10/12 08:51:24;;;;;;;27.70;14.07;;;;;;;;;;5074026;28;20074;-67
2022/10/12 08:53:57;;;;;;;22.77;13.40;;;;;;;;;;5073990;28;20040;-67
2022/10/12 08:56:24;;;;;;;20.67;13.82;;;;;;;;;;5074060;28;20087;-67
2022/10/12 08:58:52;;;;;;;22.17;13.40;;;;;;;;;;5056143;28;20049;-67
2022/10/12 09:01:35;;;;;;;29.00;14.45;;;;;;;;;;5073746;28;20064;-67
2022/10/12 09:04:11;;;;;;;24.33;13.90;;;;;;;;;;5073599;28;20482;-67
2022/10/12 09:06:46;;;;;;;20.75;12.32;;;;;;;;;;5073548;28;20052;-67
2022/10/12 09:09:28;;;;;;;25.50;14.48;;;;;;;;;;5073509;28;20083;-66
2022/10/12 09:12:14;;;;;;;24.83;16.20;;;;;;;;;;5073523;28;20477;-67
2022/10/12 09:14:43;;;;;;;34.78;17.98;;;;;;;;;;5073487;28;20478;-67
2022/10/12 09:17:23;;;;;;;27.88;15.40;;;;;;;;;;5073350;28;20132;-66
2022/10/12 09:19:53;;;;;;;24.20;14.48;;;;;;;;;;5073622;28;20363;-67
2022/10/12 09:22:20;;;;;;;23.13;14.10;;;;;;;;;;5073412;28;20398;-67
2022/10/12 09:24:49;;;;;;;22.58;13.55;;;;;;;;;;5073563;28;20467;-67
2022/10/12 09:27:18;;;;;;;29.65;16.60;;;;;;;;;;5055642;28;20393;-66
2022/10/12 09:29:49;;;;;;;20.85;13.60;;;;;;;;;;5073299;28;20048;-66
2022/10/12 09:32:45;;;;;;;23.85;14.32;;;;;;;;;;5073188;28;20478;-66
2022/10/12 09:35:13;;;;;;;23.50;13.73;;;;;;;;;;5056532;28;20053;-66
2022/10/12 09:37:41;;;;;;;24.23;14.90;;;;;;;;;;5073175;28;20044;-67
2022/10/12 09:40:16;;;;;;;24.05;13.98;;;;;;;;;;5072839;28;20516;-67
2022/10/12 09:42:44;;;;;;;23.38;14.02;;;;;;;;;;5073090;28;20029;-66
2022/10/12 09:45:15;;;;;;;21.67;13.70;;;;;;;;;;5073256;28;20086;-67
2022/10/12 09:48:03;;;;;;;24.48;13.35;;;;;;;;;;5073101;28;20429;-66
2022/10/12 09:50:38;;;;;;;16.88;11.45;;;;;;;;;;5072840;28;20037;-67
2022/10/12 09:53:19;;;;;;;21.70;12.88;;;;;;;;;;5073014;28;20051;-66
2022/10/12 09:55:56;;;;;;;18.08;12.07;;;;;;;;;;5072945;28;20029;-66
2022/10/12 09:58:24;;;;;;;17.73;12.13;;;;;;;;;;5073143;28;20052;-66
2022/10/12 10:01:11;;;;;;;21.17;12.85;;;;;;;;;;5072874;28;20469;-67
2022/10/12 10:03:38;;;;;;;20.83;11.90;;;;;;;;;;5054863;28;20045;-66
2022/10/12 10:06:06;;;;;;;16.73;12.05;;;;;;;;;;5055152;28;20400;-67
2022/10/12 10:08:40;;;;;;;22.13;12.10;;;;;;;;;;5072907;28;20036;-66
2022/10/12 10:11:14;;;;;;;23.52;14.20;;;;;;;;;;5072819;28;20040;-67
2022/10/12 10:13:49;;;;;;;20.90;13.18;;;;;;;;;;5055045;28;20098;-66
2022/10/12 10:16:16;;;;;;;20.98;13.27;;;;;;;;;;5072674;28;20373;-66
2022/10/12 10:18:48;;;;;;;20.17;11.55;;;;;;;;;;5072699;28;20060;-67
2022/10/12 10:21:24;;;;;;;19.70;12.55;;;;;;;;;;5072940;28;20032;-66
2022/10/12 10:23:53;;;;;;;17.80;10.48;;;;;;;;;;5072717;28;20063;-66
2022/10/12 10:26:21;;;;;;;21.08;10.95;;;;;;;;;;5072559;28;20485;-67
2022/10/12 10:28:49;;;;;;;21.17;12.25;;;;;;;;;;5072794;28;20052;-67
2022/10/12 10:31:23;;;;;;;15.93;10.70;;;;;;;;;;5072589;28;20070;-66
2022/10/12 10:34:03;;;;;;;19.95;10.98;;;;;;;;;;5072547;28;20397;-67
2022/10/12 10:36:32;;;;;;;22.25;10.82;;;;;;;;;;5054684;28;20045;-66
2022/10/12 10:39:03;;;;;;;19.15;11.52;;;;;;;;;;5072729;28;20045;-66
2022/10/12 10:41:34;;;;;;;18.02;10.82;;;;;;;;;;5072578;28;20044;-66
2022/10/12 10:44:02;;;;;;;13.00;9.90;;;;;;;;;;5072446;28;20489;-67
2022/10/12 10:46:31;;;;;;;22.98;11.38;;;;;;;;;;5072331;28;20086;-66
2022/10/12 10:49:05;;;;;;;21.40;12.43;;;;;;;;;;5072355;28;20094;-66
2022/10/12 10:51:49;;;;;;;20.05;14.02;;;;;;;;;;5072685;28;20041;-66
2022/10/12 10:54:37;;;;;;;23.17;13.50;;;;;;;;;;5076128;28;20051;-66
2022/10/12 10:57:10;;;;;;;21.33;14.73;;;;;;;;;;5076055;28;20120;-67
2022/10/12 10:59:56;;;;;;;15.63;11.70;;;;;;;;;;5076001;28;20036;-66
2022/10/12 11:02:50;;;;;;;20.40;11.63;;;;;;;;;;5075951;28;20464;-67
2022/10/12 11:05:33;;;;;;;17.23;12.43;;;;;;;;;;5076120;28;20048;-66
2022/10/12 11:08:19;;;;;;;15.63;9.65;;;;;;;;;;5075787;28;20040;-66
2022/10/12 11:10:53;;;;;;;14.00;9.70;;;;;;;;;;5075958;28;20041;-67
2022/10/12 11:13:26;;;;;;;16.35;10.57;;;;;;;;;;5076163;28;20371;-66
2022/10/12 11:15:57;;;;;;;22.02;11.77;;;;;;;;;;5075655;28;20044;-66
2022/10/12 11:18:38;;;;;;;21.27;12.27;;;;;;;;;;5075768;28;20037;-67
2022/10/12 11:21:12;;;;;;;18.73;11.40;;;;;;;;;;5075555;28;20064;-67
2022/10/12 11:24:01;;;;;;;20.00;10.85;;;;;;;;;;5075684;28;20497;-66
2022/10/12 11:26:31;;;;;;;22.45;11.18;;;;;;;;;;5075491;28;20040;-66
2022/10/12 11:28:59;;;;;;;17.30;10.43;;;;;;;;;;5075507;28;20083;-67
2022/10/12 11:31:31;;;;;;;18.85;11.13;;;;;;;;;;5057859;28;20044;-66
2022/10/12 11:34:02;;;;;;;16.50;11.40;;;;;;;;;;5075395;28;20482;-66
2022/10/12 11:36:30;;;;;;;21.10;11.50;;;;;;;;;;5075314;28;20051;-66
2022/10/12 11:39:06;;;;;;;21.10;11.82;;;;;;;;;;5075302;28;20074;-66
2022/10/12 11:41:33;;;;;;;18.88;11.55;;;;;;;;;;5075428;28;20045;-66
2022/10/12 11:44:14;;;;;;;16.08;10.63;;;;;;;;;;5075274;28;20037;-66
2022/10/12 11:46:46;;;;;;;14.63;9.00;;;;;;;;;;5075205;28;20449;-66
2022/10/12 11:49:16;;;;;;;14.20;8.85;;;;;;;;;;5074955;28;20040;-66
2022/10/12 11:51:46;;;;;;;14.35;8.07;;;;;;;;;;5075051;28;20455;-66
2022/10/12 11:54:23;;;;;;;11.43;7.30;;;;;;;;;;5075068;28;20425;-66
2022/10/12 11:56:52;;;;;;;12.23;5.93;;;;;;;;;;5075270;28;20072;-66
2022/10/12 11:59:52;;;;;;;10.38;5.70;;;;;;;;;;5075000;28;20076;-66
2022/10/12 12:02:52;;;;;;;14.73;6.28;;;;;;;;;;5031468;28;20044;-66
2022/10/12 12:05:20;;;;;;;8.90;5.95;;;;;;;;;;5014508;28;20048;-66
2022/10/12 12:07:49;;;;;;;9.45;5.32;;;;;;;;;;5075120;28;20072;-66
2022/10/12 12:10:34;;;;;;;11.98;6.75;;;;;;;;;;5074629;28;20436;-66
2022/10/12 12:13:13;;;;;;;8.35;6.10;;;;;;;;;;5074676;28;20056;-66
2022/10/12 12:15:41;;;;;;;9.32;5.30;;;;;;;;;;5074691;28;20147;-66
2022/10/12 12:18:25;;;;;;;12.38;5.93;;;;;;;;;;5074647;28;20076;-66
2022/10/12 12:21:03;;;;;;;11.90;6.90;;;;;;;;;;5074880;28;20097;-66
2022/10/12 12:23:30;;;;;;;12.13;7.65;;;;;;;;;;5056742;28;20049;-66
2022/10/12 12:26:14;;;;;;;12.60;7.40;;;;;;;;;;5074288;28;20049;-66
2022/10/12 12:28:48;;;;;;;11.63;6.97;;;;;;;;;;5074267;28;20074;-66
2022/10/12 12:31:27;;;;;;;9.27;6.30;;;;;;;;;;5074258;28;20064;-66
2022/10/12 12:34:13;;;;;;;12.98;6.18;;;;;;;;;;5074210;28;20424;-66
2022/10/12 12:36:43;;;;;;;10.10;5.25;;;;;;;;;;5074452;28;20390;-67
2022/10/12 12:39:32;;;;;;;9.68;4.93;;;;;;;;;;5074357;28;20420;-66
2022/10/12 12:42:01;;;;;;;10.13;4.68;;;;;;;;;;5074061;28;20098;-67
2022/10/12 12:44:41;;;;;;;7.97;4.53;;;;;;;;;;5073686;28;20068;-66
2022/10/12 12:47:09;;;;;;;10.43;6.85;;;;;;;;;;5073730;28;20044;-67
2022/10/12 12:50:17;;;;;;;6.35;4.47;;;;;;;;;;5073266;28;20371;-66
2022/10/12 12:52:44;;;;;;;11.40;7.85;;;;;;;;;;5040130;28;20048;-67
2022/10/12 12:55:18;;;;;;;9.35;5.70;;;;;;;;;;5056036;28;20056;-67
2022/10/12 12:57:48;;;;;;;6.13;3.58;;;;;;;;;;5073888;28;20037;-67
2022/10/12 13:00:16;;;;;;;6.90;4.50;;;;;;;;;;5073738;28;20098;-67
2022/10/12 13:02:53;;;;;;;7.15;4.15;;;;;;;;;;5073586;28;20055;-67
2022/10/12 13:05:59;;;;;;;6.95;3.90;;;;;;;;;;5073217;28;20040;-67
2022/10/12 13:08:47;;;;;;;8.80;4.85;;;;;;;;;;4972558;28;20047;-67
2022/10/12 13:11:23;;;;;;;7.55;4.82;;;;;;;;;;4956691;28;20051;-67
2022/10/12 13:14:18;;;;;;;9.65;5.57;;;;;;;;;;5043083;28;20410;-67
2022/10/12 13:16:51;;;;;;;6.18;4.03;;;;;;;;;;5055489;28;20139;-67
2022/10/12 13:19:39;;;;;;;8.93;4.75;;;;;;;;;;5073211;28;20440;-67
2022/10/12 13:22:13;;;;;;;8.15;6.43;;;;;;;;;;5055594;28;20123;-67
2022/10/12 13:24:49;;;;;;;6.65;4.93;;;;;;;;;;5073601;28;20173;-67
2022/10/12 13:27:19;;;;;;;10.27;5.70;;;;;;;;;;5055324;28;20044;-67
2022/10/12 13:30:05;;;;;;;6.68;4.57;;;;;;;;;;5073295;28;20067;-67
2022/10/12 13:32:32;;;;;;;9.13;5.50;;;;;;;;;;5073126;28;20046;-67
2022/10/12 13:35:04;;;;;;;9.73;4.82;;;;;;;;;;5073296;28;20064;-67
2022/10/12 13:37:33;;;;;;;8.23;5.32;;;;;;;;;;5072940;28;20493;-67
2022/10/12 13:40:01;;;;;;;9.88;5.13;;;;;;;;;;5073027;28;20044;-67
2022/10/12 13:42:31;;;;;;;14.93;5.97;;;;;;;;;;5073310;28;20048;-67
2022/10/12 13:44:58;;;;;;;13.43;7.30;;;;;;;;;;5073086;28;20060;-67
2022/10/12 13:47:27;;;;;;;16.70;5.78;;;;;;;;;;5072994;28;20041;-67
2022/10/12 13:49:55;;;;;;;7.65;4.80;;;;;;;;;;5073067;28;20497;-67
2022/10/12 13:52:26;;;;;;;10.65;6.18;;;;;;;;;;5055354;28;20110;-67
2022/10/12 13:54:58;;;;;;;8.07;5.50;;;;;;;;;;5073148;28;20041;-67
2022/10/12 13:57:26;;;;;;;15.38;6.78;;;;;;;;;;5055363;28;20120;-67
2022/10/12 13:59:57;;;;;;;10.98;6.80;;;;;;;;;;5072978;28;20048;-66
2022/10/12 14:02:26;;;;;;;10.13;6.90;;;;;;;;;;5072715;28;20044;-67
2022/10/12 14:04:55;;;;;;;8.00;5.70;;;;;;;;;;5073473;28;20143;-67
2022/10/12 14:07:33;;;;;;;10.48;6.30;;;;;;;;;;5072674;28;20493;-67
2022/10/12 14:10:04;;;;;;;10.63;6.22;;;;;;;;;;5072750;28;20055;-67
2022/10/12 14:12:31;;;;;;;12.45;5.50;;;;;;;;;;5072764;28;20048;-67
2022/10/12 14:14:59;;;;;;;9.25;6.00;;;;;;;;;;5072548;28;20087;-67
2022/10/12 14:17:27;;;;;;;11.93;7.18;;;;;;;;;;5054937;28;20509;-67
2022/10/12 14:19:58;;;;;;;9.68;6.97;;;;;;;;;;5051969;28;20064;-67
2022/10/12 14:22:28;;;;;;;21.25;13.35;;;;;;;;;;5055526;28;20052;-66
2022/10/12 14:25:16;;;;;;;16.42;8.18;;;;;;;;;;5051915;28;20037;-66
2022/10/12 14:27:43;;;;;;;36.50;15.00;;;;;;;;;;5044395;28;20051;-66
2022/10/12 14:30:21;;;;;;;14.27;6.82;;;;;;;;;;5070906;28;20036;-67
2022/10/12 14:32:49;;;;;;;16.90;8.45;;;;;;;;;;5071194;28;20052;-67
2022/10/12 14:35:29;;;;;;;38.33;24.33;;;;;;;;;;5055875;28;20037;-67
2022/10/12 14:37:57;;;;;;;17.80;8.50;;;;;;;;;;5068335;28;20037;-67
2022/10/12 14:40:25;;;;;;;17.35;10.48;;;;;;;;;;5070248;28;20037;-67
2022/10/12 14:42:58;;;;;;;15.60;8.23;;;;;;;;;;5038252;28;20045;-67
2022/10/12 14:45:26;;;;;;;25.63;15.70;;;;;;;;;;5039060;28;20037;-67
2022/10/12 14:47:54;;;;;;;17.33;10.45;;;;;;;;;;5055705;28;20086;-67
2022/10/12 14:50:22;;;;;;;16.77;9.93;;;;;;;;;;5064598;28;20041;-67
2022/10/12 14:52:54;;;;;;;17.20;8.82;;;;;;;;;;5055533;28;20457;-67
2022/10/12 14:55:23;;;;;;;12.15;6.72;;;;;;;;;;5071388;28;20050;-67
2022/10/12 14:57:51;;;;;;;10.25;6.07;;;;;;;;;;5075464;28;20130;-67
2022/10/12 15:00:23;;;;;;;8.90;5.50;;;;;;;;;;5075381;28;20113;-67